createdAt,value
2024-04-19T00:00:23.358Z,94822.00
2024-04-19T00:01:23.405Z,94819.00
2024-04-19T00:02:23.371Z,94818.00
2024-04-19T00:03:23.565Z,94821.00
2024-04-19T00:04:23.562Z,94819.00
2024-04-19T00:05:23.501Z,94817.00
2024-04-19T00:06:23.558Z,94816.00
2024-04-19T00:07:23.584Z,94815.00
2024-04-19T00:08:23.647Z,94816.00
2024-04-19T00:09:23.695Z,94815.00
2024-04-19T00:10:23.706Z,94812.00
2024-04-19T00:11:23.899Z,94813.00
2024-04-19T00:12:23.856Z,94812.00
2024-04-19T00:13:23.848Z,94810.00
2024-04-19T00:14:23.869Z,94814.00
2024-04-19T00:15:23.936Z,94811.00
2024-04-19T00:16:23.998Z,94811.00
2024-04-19T00:17:24.006Z,94814.00
2024-04-19T00:18:24.088Z,94812.00
2024-04-19T00:19:24.099Z,94811.00
2024-04-19T00:20:24.110Z,94814.00
2024-04-19T00:21:24.169Z,94812.00
2024-04-19T00:22:24.212Z,94813.00
2024-04-19T00:23:24.238Z,94812.00
2024-04-19T00:24:24.271Z,94809.00
2024-04-19T00:25:24.255Z,94810.00
2024-04-19T00:26:24.284Z,94807.00
2024-04-19T00:27:24.393Z,94807.00
2024-04-19T00:28:24.355Z,94806.00
2024-04-19T00:29:24.356Z,94807.00
2024-04-19T00:30:24.386Z,94804.00
2024-04-19T00:31:24.409Z,94802.00
2024-04-19T00:32:24.442Z,94807.00
2024-04-19T00:33:24.540Z,94804.00
2024-04-19T00:34:24.567Z,94802.00
2024-04-19T00:35:24.456Z,94804.00
2024-04-19T00:36:24.554Z,94801.00
2024-04-19T00:37:25.314Z,94800.00
2024-04-19T00:38:24.565Z,94798.00
2024-04-19T00:39:24.695Z,94797.00
2024-04-19T00:40:24.652Z,94795.00
2024-04-19T00:41:24.677Z,94795.00
2024-04-19T00:42:24.677Z,94795.00
2024-04-19T00:43:24.774Z,94794.00
2024-04-19T00:44:24.818Z,94792.00
2024-04-19T00:45:24.794Z,94789.00
2024-04-19T00:46:24.795Z,94786.00
2024-04-19T00:47:24.878Z,94786.00
2024-04-19T00:48:24.885Z,94785.00
2024-04-19T00:49:24.864Z,94782.00
2024-04-19T00:50:24.899Z,94784.00
2024-04-19T00:51:24.993Z,94784.00
2024-04-19T00:52:24.952Z,94783.00
2024-04-19T00:53:25.013Z,94783.00
2024-04-19T00:54:25.101Z,94782.00
2024-04-19T00:55:25.040Z,94784.00
2024-04-19T00:56:25.060Z,94781.00
2024-04-19T00:57:25.140Z,94784.00
2024-04-19T00:58:25.122Z,94784.00
2024-04-19T00:59:25.160Z,94784.00
2024-04-19T01:00:25.244Z,94784.00
2024-04-19T01:01:25.267Z,94782.00
2024-04-19T01:02:25.261Z,94782.00
2024-04-19T01:03:25.266Z,94782.00
2024-04-19T01:04:25.241Z,94778.00
2024-04-19T01:05:25.264Z,94778.00
2024-04-19T01:06:25.283Z,94778.00
2024-04-19T01:07:25.259Z,94775.00
2024-04-19T01:08:25.271Z,94775.00
2024-04-19T01:09:25.274Z,94774.00
2024-04-19T01:10:25.255Z,94772.00
2024-04-19T01:11:25.294Z,94773.00
2024-04-19T01:12:25.841Z,94770.00
2024-04-19T01:13:25.270Z,94768.00
2024-04-19T01:14:25.292Z,94770.00
2024-04-19T01:15:25.331Z,94769.00
2024-04-19T01:16:25.318Z,94770.00
2024-04-19T01:17:25.315Z,94770.00
2024-04-19T01:18:25.405Z,94771.00
2024-04-19T01:19:25.319Z,94772.00
2024-04-19T01:20:25.335Z,94771.00
2024-04-19T01:21:25.361Z,94773.00
2024-04-19T01:22:25.318Z,94774.00
2024-04-19T01:23:25.342Z,94774.00
2024-04-19T01:24:25.373Z,94773.00
2024-04-19T01:25:25.312Z,94774.00
2024-04-19T01:26:25.324Z,94776.00
2024-04-19T01:27:25.380Z,94775.00
2024-04-19T01:28:25.349Z,94776.00
2024-04-19T01:29:25.349Z,94776.00
2024-04-19T01:30:25.430Z,94774.00
2024-04-19T01:31:25.355Z,94777.00
2024-04-19T01:32:25.430Z,94775.00
2024-04-19T01:33:25.575Z,94774.00
2024-04-19T01:34:25.444Z,94775.00
2024-04-19T01:35:25.405Z,94774.00
2024-04-19T01:36:25.441Z,94776.00
2024-04-19T01:37:25.406Z,94778.00
2024-04-19T01:38:25.419Z,94776.00
2024-04-19T01:39:25.463Z,94777.00
2024-04-19T01:40:25.420Z,94776.00
2024-04-19T01:41:25.453Z,94776.00
2024-04-19T01:42:25.490Z,94776.00
2024-04-19T01:43:25.455Z,94777.00
2024-04-19T01:44:25.442Z,94777.00
2024-04-19T01:45:25.536Z,94776.00
2024-04-19T01:46:25.470Z,94776.00
2024-04-19T01:47:25.532Z,94776.00
2024-04-19T01:48:25.545Z,94776.00
2024-04-19T01:49:25.467Z,94775.00
2024-04-19T01:50:25.496Z,94775.00
2024-04-19T01:51:25.529Z,94771.00
2024-04-19T01:52:25.504Z,94769.00
2024-04-19T01:53:25.506Z,94767.00
2024-04-19T01:54:25.519Z,94765.00
2024-04-19T01:55:25.525Z,94767.00
2024-04-19T01:56:25.510Z,94762.00
2024-04-19T01:57:25.555Z,94766.00
2024-04-19T01:58:25.550Z,94764.00
2024-04-19T01:59:25.542Z,94763.00
2024-04-19T02:00:25.563Z,94765.00
2024-04-19T02:01:25.623Z,94766.00
2024-04-19T02:02:25.622Z,94767.00
2024-04-19T02:03:25.618Z,94767.00
2024-04-19T02:04:25.644Z,94766.00
2024-04-19T02:05:25.579Z,94768.00
2024-04-19T02:06:25.617Z,94767.00
2024-04-19T02:07:25.647Z,94769.00
2024-04-19T02:08:25.628Z,94770.00
2024-04-19T02:09:25.680Z,94768.00
2024-04-19T02:10:25.627Z,94770.00
2024-04-19T02:11:25.664Z,94766.00
2024-04-19T02:12:25.736Z,94765.00
2024-04-19T02:13:25.684Z,94764.00
2024-04-19T02:14:25.668Z,94764.00
2024-04-19T02:15:25.710Z,94763.00
2024-04-19T02:16:25.664Z,94764.00
2024-04-19T02:17:25.712Z,94764.00
2024-04-19T02:18:25.785Z,94761.00
2024-04-19T02:19:25.709Z,94762.00
2024-04-19T02:20:25.707Z,94762.00
2024-04-19T02:21:25.765Z,94761.00
2024-04-19T02:22:25.750Z,94762.00
2024-04-19T02:23:25.758Z,94762.00
2024-04-19T02:24:25.792Z,94758.00
2024-04-19T02:25:25.836Z,94756.00
2024-04-19T02:26:25.808Z,94755.00
2024-04-19T02:27:25.924Z,94753.00
2024-04-19T02:28:25.815Z,94753.00
2024-04-19T02:29:25.861Z,94755.00
2024-04-19T02:30:25.884Z,94756.00
2024-04-19T02:31:25.850Z,94756.00
2024-04-19T02:32:25.942Z,94757.00
2024-04-19T02:33:26.098Z,94758.00
2024-04-19T02:34:25.922Z,94757.00
2024-04-19T02:35:25.921Z,94756.00
2024-04-19T02:36:25.918Z,94755.00
2024-04-19T02:37:25.885Z,94752.00
2024-04-19T02:38:25.905Z,94753.00
2024-04-19T02:39:25.954Z,94750.00
2024-04-19T02:40:25.933Z,94752.00
2024-04-19T02:41:25.945Z,94753.00
2024-04-19T02:42:25.969Z,94753.00
2024-04-19T02:43:25.963Z,94754.00
2024-04-19T02:44:26.000Z,94752.00
2024-04-19T02:45:26.047Z,94750.00
2024-04-19T02:46:26.187Z,94749.00
2024-04-19T02:47:26.053Z,94749.00
2024-04-19T02:48:26.054Z,94748.00
2024-04-19T02:49:26.056Z,94748.00
2024-04-19T02:50:26.072Z,94748.00
2024-04-19T02:51:26.170Z,94746.00
2024-04-19T02:52:26.137Z,94745.00
2024-04-19T02:53:26.140Z,94743.00
2024-04-19T02:54:26.228Z,94742.00
2024-04-19T02:55:26.137Z,94739.00
2024-04-19T02:56:26.154Z,94739.00
2024-04-19T02:57:26.212Z,94737.00
2024-04-19T02:58:26.170Z,94739.00
2024-04-19T02:59:26.193Z,94737.00
2024-04-19T03:00:26.251Z,94734.00
2024-04-19T03:01:26.273Z,94735.00
2024-04-19T03:02:26.220Z,94733.00
2024-04-19T03:03:26.347Z,94731.00
2024-04-19T03:04:26.264Z,94732.00
2024-04-19T03:05:26.270Z,94731.00
2024-04-19T03:06:26.359Z,94730.00
2024-04-19T03:07:26.266Z,94730.00
2024-04-19T03:08:26.298Z,94726.00
2024-04-19T03:09:26.339Z,94726.00
2024-04-19T03:10:26.298Z,94725.00
2024-04-19T03:11:26.363Z,94725.00
2024-04-19T03:12:26.359Z,94725.00
2024-04-19T03:13:26.383Z,94722.00
2024-04-19T03:14:26.393Z,94721.00
2024-04-19T03:15:26.414Z,94718.00
2024-04-19T03:16:26.385Z,94717.00
2024-04-19T03:17:26.426Z,94719.00
2024-04-19T03:18:26.581Z,94717.00
2024-04-19T03:19:26.418Z,94716.00
2024-04-19T03:20:26.456Z,94716.00
2024-04-19T03:21:26.466Z,94715.00
2024-04-19T03:22:26.468Z,94715.00
2024-04-19T03:23:26.480Z,94717.00
2024-04-19T03:24:26.527Z,94719.00
2024-04-19T03:25:26.475Z,94716.00
2024-04-19T03:26:26.508Z,94715.00
2024-04-19T03:27:26.561Z,94715.00
2024-04-19T03:28:26.563Z,94716.00
2024-04-19T03:29:26.561Z,94715.00
2024-04-19T03:30:26.656Z,94714.00
2024-04-19T03:31:26.599Z,94711.00
2024-04-19T03:32:26.799Z,94710.00
2024-04-19T03:33:26.663Z,94707.00
2024-04-19T03:34:26.620Z,94705.00
2024-04-19T03:35:26.621Z,94705.00
2024-04-19T03:36:26.710Z,94701.00
2024-04-19T03:37:26.637Z,94705.00
2024-04-19T03:38:26.667Z,94705.00
2024-04-19T03:39:26.856Z,94702.00
2024-04-19T03:40:26.685Z,94700.00
2024-04-19T03:41:26.691Z,94698.00
2024-04-19T03:42:26.744Z,94695.00
2024-04-19T03:43:26.721Z,94695.00
2024-04-19T03:44:26.728Z,94695.00
2024-04-19T03:45:26.796Z,94695.00
2024-04-19T03:46:26.745Z,94695.00
2024-04-19T03:47:26.796Z,94692.00
2024-04-19T03:48:26.856Z,94693.00
2024-04-19T03:49:26.812Z,94693.00
2024-04-19T03:50:26.849Z,94693.00
2024-04-19T03:51:26.826Z,94694.00
2024-04-19T03:52:26.847Z,94695.00
2024-04-19T03:53:26.849Z,94696.00
2024-04-19T03:54:26.908Z,94696.00
2024-04-19T03:55:26.892Z,94693.00
2024-04-19T03:56:28.868Z,94692.00
2024-04-19T03:57:26.940Z,94694.00
2024-04-19T03:58:26.902Z,94692.00
2024-04-19T03:59:26.966Z,94693.00
2024-04-19T04:00:27.051Z,94696.00
2024-04-19T04:01:26.994Z,94696.00
2024-04-19T04:02:29.156Z,94697.00
2024-04-19T04:03:27.008Z,94697.00
2024-04-19T04:04:27.080Z,94697.00
2024-04-19T04:05:27.038Z,94698.00
2024-04-19T04:06:27.074Z,94695.00
2024-04-19T04:07:27.058Z,94695.00
2024-04-19T04:08:27.081Z,94697.00
2024-04-19T04:09:27.132Z,94697.00
2024-04-19T04:10:27.081Z,94695.00
2024-04-19T04:11:27.150Z,94697.00
2024-04-19T04:12:27.156Z,94695.00
2024-04-19T04:13:27.168Z,94697.00
2024-04-19T04:14:27.149Z,94697.00
2024-04-19T04:15:27.226Z,94694.00
2024-04-19T04:16:27.181Z,94695.00
2024-04-19T04:17:27.267Z,94693.00
2024-04-19T04:18:27.332Z,94692.00
2024-04-19T04:19:27.284Z,94692.00
2024-04-19T04:20:34.444Z,94687.00
2024-04-19T04:21:34.440Z,94688.00
2024-04-19T04:22:34.463Z,94685.00
2024-04-19T04:23:34.426Z,94686.00
2024-04-19T04:24:34.514Z,94685.00
2024-04-19T04:25:34.446Z,94685.00
2024-04-19T04:26:34.427Z,94685.00
2024-04-19T04:27:34.493Z,94684.00
2024-04-19T04:28:34.445Z,94685.00
2024-04-19T04:29:34.440Z,94684.00
2024-04-19T04:30:34.463Z,94684.00
2024-04-19T04:31:41.660Z,94685.00
2024-04-19T04:32:41.655Z,94688.00
2024-04-19T04:33:41.673Z,94687.00
2024-04-19T04:34:41.648Z,94687.00
2024-04-19T04:35:41.627Z,94687.00
2024-04-19T04:36:41.695Z,94687.00
2024-04-19T04:37:41.660Z,94686.00
2024-04-19T04:38:41.673Z,94690.00
2024-04-19T04:39:41.731Z,94687.00
2024-04-19T04:40:41.656Z,94688.00
2024-04-19T04:41:41.667Z,94685.00
2024-04-19T04:42:41.684Z,94685.00
2024-04-19T04:43:41.667Z,94685.00
2024-04-19T04:44:41.656Z,94688.00
2024-04-19T04:45:41.661Z,94688.00
2024-04-19T04:46:41.670Z,94687.00
2024-04-19T04:47:41.701Z,94690.00
2024-04-19T04:48:41.740Z,94690.00
2024-04-19T04:49:41.663Z,94693.00
2024-04-19T04:50:41.688Z,94693.00
2024-04-19T04:51:41.694Z,94691.00
2024-04-19T04:52:41.679Z,94695.00
2024-04-19T04:53:41.658Z,94699.00
2024-04-19T04:54:41.727Z,94699.00
2024-04-19T04:55:41.669Z,94698.00
2024-04-19T04:56:41.679Z,94699.00
2024-04-19T04:57:41.674Z,94699.00
2024-04-19T04:58:41.677Z,94697.00
2024-04-19T04:59:41.698Z,94698.00
2024-04-19T05:00:41.717Z,94698.00
2024-04-19T05:01:41.727Z,94694.00
2024-04-19T05:02:41.669Z,94696.00
2024-04-19T05:03:41.708Z,94696.00
2024-04-19T05:04:41.692Z,94694.00
2024-04-19T05:05:41.664Z,94696.00
2024-04-19T05:06:41.706Z,94697.00
2024-04-19T05:07:41.691Z,94697.00
2024-04-19T05:08:41.679Z,94697.00
2024-04-19T05:09:41.694Z,94697.00
2024-04-19T05:10:41.703Z,94697.00
2024-04-19T05:11:41.763Z,94696.00
2024-04-19T05:12:41.697Z,94698.00
2024-04-19T05:13:41.669Z,94698.00
2024-04-19T05:14:41.721Z,94698.00
2024-04-19T05:15:41.713Z,94697.00
2024-04-19T05:16:41.665Z,94697.00
2024-04-19T05:17:41.707Z,94695.00
2024-04-19T05:18:41.835Z,94694.00
2024-04-19T05:19:41.784Z,94695.00
2024-04-19T05:20:41.687Z,94695.00
2024-04-19T05:21:41.774Z,94693.00
2024-04-19T05:22:41.728Z,94694.00
2024-04-19T05:23:41.690Z,94690.00
2024-04-19T05:24:41.708Z,94687.00
2024-04-19T05:25:41.710Z,94686.00
2024-04-19T05:26:41.740Z,94686.00
2024-04-19T05:27:41.699Z,94683.00
2024-04-19T05:28:41.799Z,94682.00
2024-04-19T05:29:41.746Z,94681.00
2024-04-19T05:30:41.857Z,94684.00
2024-04-19T05:31:41.811Z,94680.00
2024-04-19T05:32:41.777Z,94680.00
2024-04-19T05:33:41.923Z,94679.00
2024-04-19T05:34:41.814Z,94683.00
2024-04-19T05:35:41.804Z,94683.00
2024-04-19T05:36:41.782Z,94680.00
2024-04-19T05:37:41.716Z,94682.00
2024-04-19T05:38:41.706Z,94685.00
2024-04-19T05:39:41.754Z,94684.00
2024-04-19T05:40:41.772Z,94686.00
2024-04-19T05:41:41.740Z,94685.00
2024-04-19T05:42:42.264Z,94686.00
2024-04-19T05:43:41.720Z,94687.00
2024-04-19T05:44:41.729Z,94686.00
2024-04-19T05:45:41.822Z,94688.00
2024-04-19T05:46:41.709Z,94687.00
2024-04-19T05:47:41.810Z,94686.00
2024-04-19T05:48:41.908Z,94688.00
2024-04-19T05:49:41.770Z,94686.00
2024-04-19T05:50:41.795Z,94685.00
2024-04-19T05:51:41.769Z,94685.00
2024-04-19T05:52:41.729Z,94684.00
2024-04-19T05:53:41.735Z,94685.00
2024-04-19T05:54:41.791Z,94682.00
2024-04-19T05:55:42.264Z,94681.00
2024-04-19T05:56:41.869Z,94681.00
2024-04-19T05:57:42.001Z,94682.00
2024-04-19T05:58:41.998Z,94680.00
2024-04-19T05:59:42.125Z,94680.00
2024-04-19T06:00:42.195Z,94680.00
2024-04-19T06:01:43.448Z,94679.00
2024-04-19T06:02:42.337Z,94678.00
2024-04-19T06:03:42.421Z,94678.00
2024-04-19T06:04:42.388Z,94676.00
2024-04-19T06:05:43.278Z,94678.00
2024-04-19T06:06:42.614Z,94677.00
2024-04-19T06:07:43.268Z,94676.00
2024-04-19T06:08:42.742Z,94676.00
2024-04-19T06:09:42.790Z,94678.00
2024-04-19T06:10:43.301Z,94677.00
2024-04-19T06:11:42.930Z,94676.00
2024-04-19T06:12:42.994Z,94677.00
2024-04-19T06:13:43.074Z,94678.00
2024-04-19T06:14:43.103Z,94677.00
2024-04-19T06:15:43.224Z,94681.00
2024-04-19T06:16:43.217Z,94681.00
2024-04-19T06:17:43.368Z,94680.00
2024-04-19T06:18:43.485Z,94680.00
2024-04-19T06:19:43.422Z,94679.00
2024-04-19T06:20:44.300Z,94680.00
2024-04-19T06:21:43.616Z,94679.00
2024-04-19T06:22:43.618Z,94681.00
2024-04-19T06:23:43.686Z,94679.00
2024-04-19T06:24:43.753Z,94680.00
2024-04-19T06:25:44.286Z,94677.00
2024-04-19T06:26:43.896Z,94676.00
2024-04-19T06:27:44.004Z,94674.00
2024-04-19T06:28:44.053Z,94674.00
2024-04-19T06:29:44.138Z,94674.00
2024-04-19T06:30:44.365Z,94674.00
2024-04-19T06:31:44.245Z,94674.00
2024-04-19T06:32:44.374Z,94674.00
2024-04-19T06:33:44.393Z,94673.00
2024-04-19T06:34:44.489Z,94673.00
2024-04-19T06:35:44.895Z,94673.00
2024-04-19T06:36:44.602Z,94670.00
2024-04-19T06:37:44.603Z,94673.00
2024-04-19T06:38:45.287Z,94670.00
2024-04-19T06:39:54.301Z,94668.00
2024-04-19T06:40:45.789Z,94668.00
2024-04-19T06:41:44.692Z,94668.00
2024-04-19T06:42:44.749Z,94667.00
2024-04-19T06:43:44.705Z,94665.00
2024-04-19T06:44:44.683Z,94664.00
2024-04-19T06:45:44.936Z,94663.00
2024-04-19T06:46:44.735Z,94662.00
2024-04-19T06:47:44.791Z,94662.00
2024-04-19T06:48:44.793Z,94658.00
2024-04-19T06:49:44.700Z,94660.00
2024-04-19T06:50:44.790Z,94659.00
2024-04-19T06:51:44.945Z,94658.00
2024-04-19T06:52:44.705Z,94657.00
2024-04-19T06:53:44.778Z,94656.00
2024-04-19T06:54:44.863Z,94656.00
2024-04-19T06:55:44.885Z,94655.00
2024-04-19T06:56:45.000Z,94651.00
2024-04-19T06:57:45.063Z,94650.00
2024-04-19T06:58:45.083Z,94649.00
2024-04-19T06:59:45.102Z,94644.00
2024-04-19T07:01:45.204Z,94645.00
2024-04-19T07:02:45.130Z,94644.00
2024-04-19T07:03:45.182Z,94643.00
2024-04-19T07:04:45.216Z,94644.00
2024-04-19T07:05:45.162Z,94643.00
2024-04-19T07:06:46.967Z,94644.00
2024-04-19T07:07:45.220Z,94643.00
2024-04-19T07:08:45.186Z,94645.00
2024-04-19T07:09:45.360Z,94645.00
2024-04-19T07:10:45.218Z,94646.00
2024-04-19T07:11:45.161Z,94644.00
2024-04-19T07:12:45.169Z,94642.00
2024-04-19T07:13:45.181Z,94640.00
2024-04-19T07:14:45.301Z,94642.00
2024-04-19T07:15:45.206Z,94640.00
2024-04-19T07:16:45.199Z,94641.00
2024-04-19T07:17:45.180Z,94638.00
2024-04-19T07:18:45.244Z,94639.00
2024-04-19T07:19:45.297Z,94635.00
2024-04-19T07:20:45.209Z,94635.00
2024-04-19T07:21:45.246Z,94634.00
2024-04-19T07:22:45.201Z,94635.00
2024-04-19T07:23:45.291Z,94633.00
2024-04-19T07:24:45.307Z,94631.00
2024-04-19T07:25:45.344Z,94630.00
2024-04-19T07:26:45.199Z,94631.00
2024-04-19T07:27:46.878Z,94627.00
2024-04-19T07:28:45.194Z,94623.00
2024-04-19T07:29:45.176Z,94620.00
2024-04-19T07:30:45.236Z,94620.00
2024-04-19T07:31:45.231Z,94619.00
2024-04-19T07:32:45.234Z,94619.00
2024-04-19T07:33:45.271Z,94618.00
2024-04-19T07:34:45.302Z,94618.00
2024-04-19T07:35:45.318Z,94619.00
2024-04-19T07:36:45.406Z,94617.00
2024-04-19T07:37:45.473Z,94615.00
2024-04-19T07:38:45.512Z,94611.00
2024-04-19T07:39:45.961Z,94608.00
2024-04-19T07:40:46.333Z,94608.00
2024-04-19T07:41:45.779Z,94606.00
2024-04-19T07:42:45.662Z,94606.00
2024-04-19T07:43:50.129Z,94603.00
2024-04-19T07:44:46.717Z,94601.00
2024-04-19T07:45:45.760Z,94597.00
2024-04-19T07:46:45.719Z,94595.00
2024-04-19T07:47:45.773Z,94591.00
2024-04-19T07:48:45.817Z,94589.00
2024-04-19T07:49:45.755Z,94588.00
2024-04-19T07:50:45.721Z,94589.00
2024-04-19T07:51:45.836Z,94589.00
2024-04-19T07:52:45.728Z,94586.00
2024-04-19T07:53:45.743Z,94586.00
2024-04-19T07:54:45.888Z,94582.00
2024-04-19T07:55:45.717Z,94577.00
2024-04-19T07:56:45.721Z,94575.00
2024-04-19T07:57:45.767Z,94571.00
2024-04-19T07:58:45.734Z,94570.00
2024-04-19T07:59:45.831Z,94572.00
2024-04-19T08:00:45.856Z,94569.00
2024-04-19T08:01:45.749Z,94569.00
2024-04-19T08:02:45.736Z,94565.00
2024-04-19T08:03:45.757Z,94564.00
2024-04-19T08:04:45.898Z,94560.00
2024-04-19T08:05:45.916Z,94556.00
2024-04-19T08:06:45.769Z,94555.00
2024-04-19T08:07:45.739Z,94552.00
2024-04-19T08:08:45.750Z,94554.00
2024-04-19T08:09:45.807Z,94553.00
2024-04-19T08:10:45.742Z,94557.00
2024-04-19T08:11:45.837Z,94557.00
2024-04-19T08:12:45.945Z,94557.00
2024-04-19T08:13:45.989Z,94553.00
2024-04-19T08:14:45.941Z,94554.00
2024-04-19T08:15:46.006Z,94553.00
2024-04-19T08:16:46.073Z,94552.00
2024-04-19T08:17:46.091Z,94554.00
2024-04-19T08:18:46.147Z,94552.00
2024-04-19T08:19:46.182Z,94551.00
2024-04-19T08:20:46.223Z,94551.00
2024-04-19T08:21:46.313Z,94551.00
2024-04-19T08:22:46.358Z,94553.00
2024-04-19T08:23:46.380Z,94549.00
2024-04-19T08:24:46.507Z,94548.00
2024-04-19T08:25:46.515Z,94547.00
2024-04-19T08:26:46.577Z,94543.00
2024-04-19T08:27:46.697Z,94542.00
2024-04-19T08:28:46.748Z,94541.00
2024-04-19T08:29:46.692Z,94541.00
2024-04-19T08:30:46.735Z,94542.00
2024-04-19T08:31:46.808Z,94540.00
2024-04-19T08:32:47.414Z,94540.00
2024-04-19T08:33:46.792Z,94539.00
2024-04-19T08:34:46.782Z,94540.00
2024-04-19T08:35:46.840Z,94540.00
2024-04-19T08:36:46.915Z,94536.00
2024-04-19T08:37:46.941Z,94536.00
2024-04-19T08:38:47.026Z,94531.00
2024-04-19T08:39:47.200Z,94530.00
2024-04-19T08:40:47.146Z,94529.00
2024-04-19T08:41:47.186Z,94525.00
2024-04-19T08:42:47.324Z,94524.00
2024-04-19T08:43:47.362Z,94523.00
2024-04-19T08:44:47.311Z,94522.00
2024-04-19T08:45:47.467Z,94517.00
2024-04-19T08:46:47.440Z,94516.00
2024-04-19T08:47:47.636Z,94514.00
2024-04-19T08:48:47.705Z,94513.00
2024-04-19T08:49:47.604Z,94513.00
2024-04-19T08:50:47.883Z,94511.00
2024-04-19T08:52:00.476Z,94509.00
2024-04-19T08:53:09.472Z,94508.00
2024-04-19T08:53:48.749Z,94505.00
2024-04-19T08:54:47.734Z,94503.00
2024-04-19T08:55:47.667Z,94504.00
2024-04-19T08:56:47.681Z,94503.00
2024-04-19T08:57:47.725Z,94500.00
2024-04-19T08:58:51.026Z,94501.00
2024-04-19T08:59:55.381Z,94498.00
2024-04-19T09:00:48.987Z,94499.00
2024-04-19T09:01:47.743Z,94497.00
2024-04-19T09:02:47.749Z,94495.00
2024-04-19T09:03:47.796Z,94493.00
2024-04-19T09:04:47.871Z,94495.00
2024-04-19T09:05:47.870Z,94491.00
2024-04-19T09:06:47.763Z,94488.00
2024-04-19T09:07:47.689Z,94489.00
2024-04-19T09:08:47.700Z,94490.00
2024-04-19T09:09:47.680Z,94492.00
2024-04-19T09:10:47.702Z,94490.00
2024-04-19T09:11:47.724Z,94488.00
2024-04-19T09:12:47.816Z,94487.00
2024-04-19T09:13:47.730Z,94487.00
2024-04-19T09:14:47.787Z,94485.00
2024-04-19T09:15:47.772Z,94484.00
2024-04-19T09:16:47.717Z,94482.00
2024-04-19T09:17:47.789Z,94480.00
2024-04-19T09:18:47.798Z,94476.00
2024-04-19T09:19:47.700Z,94472.00
2024-04-19T09:20:47.835Z,94472.00
2024-04-19T09:21:47.784Z,94473.00
2024-04-19T09:22:47.730Z,94471.00
2024-04-19T09:23:47.762Z,94473.00
2024-04-19T09:24:47.907Z,94470.00
2024-04-19T09:25:47.856Z,94470.00
2024-04-19T09:26:47.847Z,94469.00
2024-04-19T09:27:47.871Z,94464.00
2024-04-19T09:28:47.963Z,94460.00
2024-04-19T09:29:47.865Z,94460.00
2024-04-19T09:30:47.968Z,94459.00
2024-04-19T09:31:47.909Z,94455.00
2024-04-19T09:32:48.034Z,94451.00
2024-04-19T09:33:48.089Z,94449.00
2024-04-19T09:34:47.947Z,94447.00
2024-04-19T09:35:48.361Z,94449.00
2024-04-19T09:36:48.001Z,94448.00
2024-04-19T09:37:48.035Z,94447.00
2024-04-19T09:38:48.108Z,94446.00
2024-04-19T09:39:48.285Z,94439.00
2024-04-19T09:40:48.359Z,94436.00
2024-04-19T09:41:48.221Z,94432.00
2024-04-19T09:42:48.440Z,94432.00
2024-04-19T09:43:48.281Z,94428.00
2024-04-19T09:44:48.312Z,94429.00
2024-04-19T09:45:48.425Z,94426.00
2024-04-19T09:46:48.428Z,94426.00
2024-04-19T09:47:48.423Z,94425.00
2024-04-19T09:48:48.480Z,94428.00
2024-04-19T09:49:48.462Z,94425.00
2024-04-19T09:50:48.488Z,94423.00
2024-04-19T09:51:48.667Z,94422.00
2024-04-19T09:52:48.563Z,94421.00
2024-04-19T09:53:48.605Z,94418.00
2024-04-19T09:54:48.696Z,94419.00
2024-04-19T09:55:48.643Z,94420.00
2024-04-19T09:56:48.668Z,94421.00
2024-04-19T09:57:48.755Z,94423.00
2024-04-19T09:58:48.737Z,94418.00
2024-04-19T09:59:48.807Z,94417.00
2024-04-19T10:00:49.007Z,94417.00
2024-04-19T10:01:48.921Z,94414.00
2024-04-19T10:02:48.883Z,94411.00
2024-04-19T10:03:48.988Z,94411.00
2024-04-19T10:04:49.012Z,94410.00
2024-04-19T10:05:49.420Z,94405.00
2024-04-19T10:06:48.960Z,94406.00
2024-04-19T10:07:48.939Z,94407.00
2024-04-19T10:08:48.984Z,94404.00
2024-04-19T10:09:49.172Z,94406.00
2024-04-19T10:10:49.127Z,94406.00
2024-04-19T10:11:49.088Z,94403.00
2024-04-19T10:12:49.206Z,94400.00
2024-04-19T10:13:49.135Z,94401.00
2024-04-19T10:14:49.194Z,94399.00
2024-04-19T10:15:49.356Z,94397.00
2024-04-19T10:16:49.254Z,94393.00
2024-04-19T10:17:49.367Z,94393.00
2024-04-19T10:18:49.386Z,94392.00
2024-04-19T10:19:54.078Z,94392.00
2024-04-19T10:20:50.365Z,94390.00
2024-04-19T10:21:49.408Z,94389.00
2024-04-19T10:22:49.367Z,94385.00
2024-04-19T10:23:49.474Z,94383.00
2024-04-19T10:24:49.418Z,94382.00
2024-04-19T10:25:49.368Z,94377.00
2024-04-19T10:26:49.467Z,94375.00
2024-04-19T10:27:49.432Z,94373.00
2024-04-19T10:28:49.394Z,94372.00
2024-04-19T10:29:49.376Z,94373.00
2024-04-19T10:30:49.468Z,94365.00
2024-04-19T10:31:49.405Z,94359.00
2024-04-19T10:32:49.401Z,94354.00
2024-04-19T10:33:49.471Z,94353.00
2024-04-19T10:34:49.360Z,94348.00
2024-04-19T10:35:49.405Z,94345.00
2024-04-19T10:36:49.393Z,94342.00
2024-04-19T10:37:49.412Z,94336.00
2024-04-19T10:38:49.368Z,94332.00
2024-04-19T10:39:49.465Z,94327.00
2024-04-19T10:40:49.424Z,94325.00
2024-04-19T10:41:49.438Z,94324.00
2024-04-19T10:42:49.397Z,94325.00
2024-04-19T10:43:49.372Z,94325.00
2024-04-19T10:44:49.529Z,94320.00
2024-04-19T10:45:49.456Z,94319.00
2024-04-19T10:46:49.495Z,94318.00
2024-04-19T10:47:49.555Z,94316.00
2024-04-19T10:48:49.596Z,94320.00
2024-04-19T10:49:49.932Z,94313.00
2024-04-19T10:50:49.508Z,94311.00
2024-04-19T10:51:49.702Z,94306.00
2024-04-19T10:52:49.569Z,94306.00
2024-04-19T10:53:49.571Z,94304.00
2024-04-19T10:54:49.648Z,94306.00
2024-04-19T10:55:49.626Z,94302.00
2024-04-19T10:56:49.634Z,94293.00
2024-04-19T10:57:49.760Z,94294.00
2024-04-19T10:58:49.685Z,94291.00
2024-04-19T10:59:49.707Z,94287.00
2024-04-19T11:00:49.847Z,94281.00
2024-04-19T11:01:49.810Z,94286.00
2024-04-19T11:02:52.168Z,94279.00
2024-04-19T11:03:49.921Z,94271.00
2024-04-19T11:04:49.884Z,94270.00
2024-04-19T11:05:49.771Z,94270.00
2024-04-19T11:06:49.833Z,94265.00
2024-04-19T11:07:49.778Z,94261.00
2024-04-19T11:08:49.786Z,94256.00
2024-04-19T11:09:49.942Z,94253.00
2024-04-19T11:10:49.799Z,94248.00
2024-04-19T11:11:49.911Z,94244.00
2024-04-19T11:12:49.863Z,94242.00
2024-04-19T11:13:49.854Z,94238.00
2024-04-19T11:14:49.793Z,94239.00
2024-04-19T11:15:56.954Z,94240.00
2024-04-19T11:16:50.816Z,94237.00
2024-04-19T11:17:49.979Z,94229.00
2024-04-19T11:18:49.960Z,94226.00
2024-04-19T11:19:49.794Z,94222.00
2024-04-19T11:20:56.866Z,94222.00
2024-04-19T11:21:50.978Z,94223.00
2024-04-19T11:22:49.833Z,94221.00
2024-04-19T11:23:52.055Z,94219.00
2024-04-19T11:24:49.826Z,94217.00
2024-04-19T11:25:49.807Z,94213.00
2024-04-19T11:26:49.828Z,94206.00
2024-04-19T11:27:49.939Z,94201.00
2024-04-19T11:28:49.892Z,94201.00
2024-04-19T11:29:49.865Z,94201.00
2024-04-19T11:30:49.975Z,94200.00
2024-04-19T11:31:49.917Z,94200.00
2024-04-19T11:32:49.898Z,94195.00
2024-04-19T11:33:49.937Z,94188.00
2024-04-19T11:34:49.941Z,94185.00
2024-04-19T11:35:49.977Z,94185.00
2024-04-19T11:36:50.015Z,94185.00
2024-04-19T11:37:50.028Z,94182.00
2024-04-19T11:38:50.051Z,94178.00
2024-04-19T11:39:50.109Z,94177.00
2024-04-19T11:40:50.113Z,94172.00
2024-04-19T11:41:50.111Z,94174.00
2024-04-19T11:42:50.155Z,94174.00
2024-04-19T11:43:50.193Z,94170.00
2024-04-19T11:44:50.171Z,94168.00
2024-04-19T11:45:50.248Z,94167.00